createdAt,value
2022-12-24T00:01:37.969Z,87.86
2022-12-24T00:04:06.738Z,87.83
2022-12-24T00:06:35.657Z,87.83
2022-12-24T00:09:04.252Z,87.85
2022-12-24T00:11:34.070Z,87.82
2022-12-24T00:14:02.803Z,87.81
2022-12-24T00:16:31.525Z,87.71
2022-12-24T00:19:00.392Z,87.68
2022-12-24T00:21:29.407Z,87.69
2022-12-24T00:23:58.753Z,87.76
2022-12-24T00:26:28.108Z,87.73
2022-12-24T00:28:57.239Z,87.76
2022-12-24T00:31:27.648Z,87.80
2022-12-24T00:33:56.846Z,87.82
2022-12-24T00:36:25.589Z,87.99
2022-12-24T00:38:54.623Z,87.94
2022-12-24T00:41:28.133Z,88.07
2022-12-24T00:44:02.410Z,88.10
2022-12-24T00:46:32.361Z,88.18
2022-12-24T00:49:01.401Z,88.23
2022-12-24T00:51:30.401Z,88.31
2022-12-24T00:53:59.320Z,88.34
2022-12-24T00:56:28.622Z,88.39
2022-12-24T00:58:57.083Z,88.46
2022-12-24T01:01:26.030Z,88.35
2022-12-24T01:03:59.602Z,88.42
2022-12-24T01:06:29.971Z,88.58
2022-12-24T01:08:58.504Z,88.69
2022-12-24T01:11:26.995Z,88.78
2022-12-24T01:13:56.957Z,88.74
2022-12-24T01:16:26.209Z,88.72
2022-12-24T01:18:55.028Z,88.71
2022-12-24T01:21:25.655Z,88.65
2022-12-24T01:23:54.820Z,88.40
2022-12-24T01:26:23.847Z,88.32
2022-12-24T01:28:52.954Z,88.34
2022-12-24T01:31:22.597Z,88.28
2022-12-24T01:33:51.250Z,88.30
2022-12-24T01:36:20.402Z,88.34
2022-12-24T01:38:49.747Z,88.38
2022-12-24T01:41:40.416Z,88.36
2022-12-24T01:44:33.494Z,88.31
2022-12-24T01:47:10.516Z,88.27
2022-12-24T01:49:43.756Z,88.31
2022-12-24T01:52:23.203Z,88.33
2022-12-24T01:54:55.527Z,88.31
2022-12-24T01:57:28.704Z,88.30
2022-12-24T02:00:00.926Z,88.31
2022-12-24T02:02:30.615Z,88.31
2022-12-24T02:05:06.804Z,88.39
2022-12-24T02:07:35.407Z,88.51
2022-12-24T02:10:08.236Z,88.59
2022-12-24T02:12:37.200Z,88.67
2022-12-24T02:15:07.417Z,88.62
2022-12-24T02:17:53.197Z,88.62
2022-12-24T02:20:52.940Z,88.64
2022-12-24T02:23:48.212Z,88.74
2022-12-24T02:26:31.226Z,88.84
2022-12-24T02:29:23.301Z,88.84
2022-12-24T02:32:07.794Z,88.87
2022-12-24T02:34:52.109Z,88.84
2022-12-24T02:37:27.741Z,88.88
2022-12-24T02:40:03.476Z,89.12
2022-12-24T02:42:40.835Z,89.26
2022-12-24T02:45:13.649Z,89.36
2022-12-24T02:47:42.670Z,89.38
2022-12-24T02:50:14.269Z,89.40
2022-12-24T02:52:44.840Z,89.44
2022-12-24T02:55:24.751Z,89.62
2022-12-24T02:58:24.442Z,89.79
2022-12-24T03:01:17.152Z,89.90
2022-12-24T03:04:00.784Z,89.86
2022-12-24T03:06:56.233Z,89.97
2022-12-24T03:09:30.416Z,90.14
2022-12-24T03:12:06.468Z,90.29
2022-12-24T03:14:35.781Z,90.35
2022-12-24T03:17:04.768Z,90.50
2022-12-24T03:19:33.864Z,90.50
2022-12-24T03:22:04.535Z,90.48
2022-12-24T03:24:33.058Z,90.64
2022-12-24T03:27:01.797Z,90.69
2022-12-24T03:29:30.344Z,90.77
2022-12-24T03:32:02.718Z,90.99
2022-12-24T03:34:33.275Z,91.14
2022-12-24T03:37:02.019Z,91.19
2022-12-24T03:39:30.541Z,91.16
2022-12-24T03:41:59.785Z,91.12
2022-12-24T03:44:28.673Z,91.17
2022-12-24T03:46:57.632Z,91.18
2022-12-24T03:49:26.612Z,91.14
2022-12-24T03:51:55.092Z,91.03
2022-12-24T03:54:23.541Z,90.97
2022-12-24T03:56:51.944Z,91.03
2022-12-24T03:59:21.022Z,91.02
2022-12-24T04:01:50.250Z,91.04
2022-12-24T04:04:19.135Z,91.04
2022-12-24T04:06:47.704Z,91.05
2022-12-24T04:09:16.440Z,91.12
2022-12-24T04:11:45.371Z,91.22
2022-12-24T04:14:14.559Z,91.36
2022-12-24T04:16:43.417Z,91.45
2022-12-24T04:19:12.811Z,91.49
2022-12-24T04:21:41.676Z,91.45
2022-12-24T04:24:10.169Z,91.49
2022-12-24T04:26:39.563Z,91.59
2022-12-24T04:29:08.092Z,91.66
2022-12-24T04:31:37.582Z,91.75
2022-12-24T04:34:06.350Z,91.73
2022-12-24T04:36:35.657Z,91.69
2022-12-24T04:39:04.231Z,91.71
2022-12-24T04:41:32.837Z,91.68
2022-12-24T04:44:01.517Z,91.67
2022-12-24T04:46:30.990Z,91.61
2022-12-24T04:49:00.235Z,91.53
2022-12-24T04:51:30.432Z,91.43
2022-12-24T04:53:59.063Z,91.38
2022-12-24T04:56:30.229Z,91.39
2022-12-24T04:59:01.745Z,91.38
2022-12-24T05:01:32.395Z,91.35
2022-12-24T05:04:00.885Z,91.24
2022-12-24T05:06:31.570Z,91.25
2022-12-24T05:09:00.523Z,91.22
2022-12-24T05:11:29.561Z,91.17
2022-12-24T05:13:58.445Z,91.27
2022-12-24T05:16:27.392Z,91.32
2022-12-24T05:18:56.199Z,91.31
2022-12-24T05:21:24.798Z,91.19
2022-12-24T05:24:12.305Z,91.13
2022-12-24T05:26:56.316Z,91.01
2022-12-24T05:29:25.247Z,91.05
2022-12-24T05:31:54.625Z,91.05
2022-12-24T05:34:23.241Z,91.16
2022-12-24T05:36:52.076Z,91.16
2022-12-24T05:39:21.158Z,91.23
2022-12-24T05:41:49.767Z,91.22
2022-12-24T05:44:18.390Z,91.23
2022-12-24T05:46:48.723Z,91.12
2022-12-24T05:49:17.312Z,90.84
2022-12-24T05:51:46.077Z,90.83
2022-12-24T05:54:14.992Z,90.75
2022-12-24T05:56:43.534Z,90.86
2022-12-24T05:59:13.277Z,90.88
2022-12-24T06:01:43.839Z,90.88
2022-12-24T06:04:12.888Z,90.85
2022-12-24T06:06:43.245Z,90.79
2022-12-24T06:09:11.947Z,90.72
2022-12-24T06:11:40.675Z,90.67
2022-12-24T06:14:10.208Z,90.49
2022-12-24T06:16:39.106Z,90.46
2022-12-24T06:19:07.777Z,90.46
2022-12-24T06:21:36.645Z,90.28
2022-12-24T06:24:06.176Z,90.32
2022-12-24T06:26:35.290Z,90.28
2022-12-24T06:29:03.745Z,90.34
2022-12-24T06:31:33.487Z,90.25
2022-12-24T06:34:02.448Z,90.16
2022-12-24T06:36:31.095Z,90.19
2022-12-24T06:39:00.226Z,90.13
2022-12-24T06:41:30.995Z,90.08
2022-12-24T06:43:59.679Z,90.12
2022-12-24T06:46:28.361Z,90.21
2022-12-24T06:48:57.246Z,90.27
2022-12-24T06:51:26.292Z,90.17
2022-12-24T06:53:54.895Z,90.14
2022-12-24T06:56:23.461Z,90.12
2022-12-24T06:58:52.158Z,90.18
2022-12-24T07:01:21.364Z,90.20
2022-12-24T07:03:50.093Z,90.12
2022-12-24T07:06:27.482Z,89.94
2022-12-24T07:08:55.641Z,89.95
2022-12-24T07:11:24.874Z,89.92
2022-12-24T07:13:53.730Z,89.90
2022-12-24T07:16:22.595Z,89.78
2022-12-24T07:18:51.782Z,89.73
2022-12-24T07:21:22.542Z,89.61
2022-12-24T07:23:51.141Z,89.56
2022-12-24T07:26:20.139Z,89.59
2022-12-24T07:28:48.712Z,89.55
2022-12-24T07:31:17.771Z,89.51
2022-12-24T07:33:46.522Z,89.47
2022-12-24T07:36:20.466Z,89.42
2022-12-24T07:38:49.742Z,89.25
2022-12-24T07:41:19.931Z,89.08
2022-12-24T07:43:48.455Z,88.99
2022-12-24T07:46:16.987Z,88.85
2022-12-24T07:48:46.202Z,88.82
2022-12-24T07:51:14.922Z,88.67
2022-12-24T07:53:45.614Z,88.61
2022-12-24T07:56:15.574Z,88.59
2022-12-24T07:58:44.055Z,88.49
2022-12-24T08:01:13.339Z,88.30
2022-12-24T08:03:42.372Z,88.13
2022-12-24T08:06:11.727Z,87.93
2022-12-24T08:08:41.096Z,87.88
2022-12-24T08:11:09.909Z,87.85
2022-12-24T08:13:39.094Z,87.88
2022-12-24T08:16:07.941Z,87.81
2022-12-24T08:18:36.865Z,87.82
2022-12-24T08:21:08.214Z,87.69
2022-12-24T08:23:37.354Z,87.65
2022-12-24T08:26:09.712Z,87.77
2022-12-24T08:28:39.647Z,87.80
2022-12-24T08:31:08.831Z,87.74
2022-12-24T08:33:38.653Z,87.77
2022-12-24T08:36:08.271Z,87.79
2022-12-24T08:38:37.280Z,87.69
2022-12-24T08:41:09.256Z,87.71
2022-12-24T08:43:38.130Z,87.70
2022-12-24T08:46:06.774Z,87.42
2022-12-24T08:48:36.518Z,87.26
2022-12-24T08:51:12.186Z,87.13
2022-12-24T08:53:43.597Z,86.76
2022-12-24T08:56:12.297Z,86.47
2022-12-24T08:58:41.136Z,86.22
2022-12-24T09:01:16.101Z,86.16
2022-12-24T09:03:46.627Z,85.99
2022-12-24T09:06:15.839Z,86.21
2022-12-24T09:08:44.960Z,86.05
2022-12-24T09:11:16.250Z,85.94
2022-12-24T09:13:45.290Z,85.78
2022-12-24T09:16:15.620Z,85.69
2022-12-24T09:18:45.699Z,85.71
2022-12-24T09:21:16.132Z,85.63
2022-12-24T09:23:47.381Z,85.47
2022-12-24T09:26:20.215Z,85.37
2022-12-24T09:28:49.648Z,85.55
2022-12-24T09:31:21.362Z,85.27
2022-12-24T09:33:50.910Z,85.09
2022-12-24T09:36:19.971Z,84.89
2022-12-24T09:38:49.282Z,84.85
2022-12-24T09:41:43.242Z,84.70
2022-12-24T09:44:27.063Z,84.56
2022-12-24T09:46:57.099Z,84.47
2022-12-24T09:49:29.015Z,84.41
2022-12-24T09:52:01.671Z,84.61
2022-12-24T09:54:49.881Z,84.59
2022-12-24T09:57:23.043Z,84.37
2022-12-24T09:59:52.185Z,84.17
2022-12-24T10:02:21.065Z,84.07
2022-12-24T10:04:50.324Z,83.99
2022-12-24T10:07:39.430Z,83.98
2022-12-24T10:10:33.335Z,83.88
2022-12-24T10:13:13.554Z,83.71
2022-12-24T10:16:09.307Z,83.60
2022-12-24T10:18:55.623Z,83.43
2022-12-24T10:21:41.819Z,83.37
2022-12-24T10:24:51.022Z,83.27
2022-12-24T10:27:21.775Z,83.17
2022-12-24T10:30:02.020Z,83.30
2022-12-24T10:32:33.739Z,83.11
2022-12-24T10:35:22.791Z,83.23
2022-12-24T10:37:52.626Z,83.32
2022-12-24T10:40:44.611Z,83.34
2022-12-24T10:43:19.660Z,83.58
2022-12-24T10:45:51.597Z,84.15
2022-12-24T10:48:42.363Z,84.96
2022-12-24T10:51:31.101Z,85.76
2022-12-24T10:54:04.360Z,86.22
2022-12-24T10:56:35.450Z,86.40
2022-12-24T10:59:04.395Z,86.40
2022-12-24T11:01:48.885Z,86.40
2022-12-24T11:04:27.916Z,86.56
2022-12-24T11:07:05.429Z,86.63
2022-12-24T11:09:36.802Z,86.62
2022-12-24T11:12:09.199Z,86.41
2022-12-24T11:14:39.736Z,86.24
2022-12-24T11:17:10.081Z,86.31
2022-12-24T11:19:39.708Z,86.40
2022-12-24T11:22:25.970Z,86.31
2022-12-24T11:25:02.099Z,86.41
2022-12-24T11:27:46.006Z,86.44
2022-12-24T11:30:21.295Z,86.60
2022-12-24T11:32:55.115Z,86.69
2022-12-24T11:35:24.272Z,86.82
2022-12-24T11:38:07.405Z,86.80
2022-12-24T11:40:42.731Z,86.79
2022-12-24T11:43:19.320Z,86.80
2022-12-24T11:45:54.868Z,86.67
2022-12-24T11:48:33.004Z,86.74
2022-12-24T11:51:04.377Z,86.96
2022-12-24T11:54:02.192Z,86.97
2022-12-24T11:56:40.562Z,87.07
2022-12-24T11:59:17.843Z,87.30
2022-12-24T12:01:58.595Z,87.44
2022-12-24T12:04:33.968Z,87.45
2022-12-24T12:07:17.174Z,87.42
2022-12-24T12:09:52.117Z,87.79
2022-12-24T12:12:30.887Z,88.06
2022-12-24T12:15:04.743Z,87.83
2022-12-24T12:17:48.154Z,88.04
2022-12-24T12:20:36.644Z,88.24
2022-12-24T12:23:19.156Z,88.24
2022-12-24T12:26:00.597Z,88.31
2022-12-24T12:28:37.692Z,88.32
2022-12-24T12:31:16.515Z,88.31
2022-12-24T12:34:18.320Z,88.28
2022-12-24T12:37:03.840Z,88.24
2022-12-24T12:39:33.228Z,88.15
2022-12-24T12:42:35.812Z,88.18
2022-12-24T12:45:35.629Z,88.24
2022-12-24T12:48:30.678Z,88.25
2022-12-24T12:51:09.445Z,88.07
2022-12-24T12:54:11.084Z,87.96
2022-12-24T12:56:40.424Z,88.01
2022-12-24T12:59:21.111Z,88.18
2022-12-24T13:02:10.826Z,88.09
2022-12-24T13:05:15.341Z,88.09
2022-12-24T13:08:27.524Z,88.13
2022-12-24T13:11:04.621Z,88.12
2022-12-24T13:13:51.591Z,88.34
2022-12-24T13:16:59.626Z,88.48
2022-12-24T13:19:39.524Z,88.65
2022-12-24T13:22:17.232Z,88.81
2022-12-24T13:24:54.342Z,89.02
2022-12-24T13:27:33.850Z,89.23
2022-12-24T13:30:35.854Z,89.30
2022-12-24T13:33:05.711Z,89.46
2022-12-24T13:35:38.219Z,89.64
2022-12-24T13:38:31.619Z,89.60
2022-12-24T13:41:39.327Z,89.65
2022-12-24T13:44:20.372Z,89.61
2022-12-24T13:47:07.555Z,89.37
2022-12-24T13:49:44.975Z,89.53
2022-12-24T13:52:18.528Z,89.12
2022-12-24T13:55:01.502Z,88.77
2022-12-24T13:57:47.936Z,88.46
2022-12-24T14:00:42.672Z,88.10
2022-12-24T14:03:22.880Z,87.93
2022-12-24T14:05:58.751Z,87.72
2022-12-24T14:08:43.739Z,87.39
2022-12-24T14:11:20.396Z,87.40
2022-12-24T14:13:53.653Z,87.52
2022-12-24T14:16:28.038Z,87.45
2022-12-24T14:19:05.866Z,87.51
2022-12-24T14:21:38.490Z,87.54
2022-12-24T14:24:25.245Z,87.33
2022-12-24T14:26:59.311Z,87.28
2022-12-24T14:29:33.984Z,87.38
2022-12-24T14:32:06.203Z,87.30
2022-12-24T14:34:36.943Z,87.30
2022-12-24T14:37:06.559Z,87.57
2022-12-24T14:39:39.280Z,87.44
2022-12-24T14:42:31.583Z,87.54
2022-12-24T14:45:17.799Z,87.52
2022-12-24T14:47:55.394Z,87.45
2022-12-24T14:50:42.051Z,87.49
2022-12-24T14:53:44.235Z,88.06
2022-12-24T14:56:22.205Z,88.08
2022-12-24T14:58:52.225Z,87.94
2022-12-24T15:01:29.313Z,87.81
2022-12-24T15:04:14.047Z,87.68
2022-12-24T15:06:50.274Z,87.71
2022-12-24T15:09:29.040Z,87.80
2022-12-24T15:12:00.633Z,87.88
2022-12-24T15:14:30.382Z,88.02
2022-12-24T15:17:04.373Z,88.15
2022-12-24T15:19:36.926Z,88.28
2022-12-24T15:22:13.115Z,88.59
2022-12-24T15:24:47.843Z,88.74
2022-12-24T15:27:21.012Z,88.96
2022-12-24T15:29:52.943Z,89.18
2022-12-24T15:32:21.542Z,89.30
2022-12-24T15:34:54.632Z,89.35
2022-12-24T15:37:28.141Z,89.44
2022-12-24T15:40:10.691Z,89.50
2022-12-24T15:42:43.851Z,89.77
2022-12-24T15:45:31.394Z,90.05
2022-12-24T15:48:04.205Z,90.17
2022-12-24T15:50:38.578Z,90.40
2022-12-24T15:53:20.252Z,90.49
2022-12-24T15:55:42.518Z,90.59
2022-12-24T15:58:25.240Z,90.65
2022-12-24T16:01:17.762Z,90.91
2022-12-24T16:03:56.644Z,91.19
2022-12-24T16:06:25.387Z,91.42
2022-12-24T16:08:55.713Z,91.65
2022-12-24T16:11:35.713Z,91.79
2022-12-24T16:14:18.672Z,92.01
2022-12-24T16:16:48.372Z,92.26
2022-12-24T16:19:23.328Z,92.55
2022-12-24T16:22:06.875Z,92.65
2022-12-24T16:24:35.764Z,92.67
2022-12-24T16:27:10.047Z,92.72
2022-12-24T16:29:38.933Z,92.80
2022-12-24T16:32:17.341Z,92.92
2022-12-24T16:34:46.103Z,93.03
2022-12-24T16:37:14.591Z,93.27
2022-12-24T16:39:43.392Z,93.48
2022-12-24T16:42:30.387Z,93.64
2022-12-24T16:44:59.187Z,93.74
2022-12-24T16:47:32.407Z,93.86
2022-12-24T16:50:02.793Z,93.91
2022-12-24T16:52:33.456Z,94.01
2022-12-24T16:55:02.425Z,94.04
2022-12-24T16:57:33.163Z,94.13
2022-12-24T17:00:06.065Z,94.19
2022-12-24T17:02:36.776Z,94.39
2022-12-24T17:05:08.328Z,94.52
2022-12-24T17:07:42.949Z,94.59
2022-12-24T17:10:10.709Z,94.56
2022-12-24T17:12:39.497Z,94.65
2022-12-24T17:15:10.579Z,94.75
2022-12-24T17:17:39.940Z,94.78
2022-12-24T17:20:09.661Z,94.81
2022-12-24T17:22:38.362Z,94.86
2022-12-24T17:25:08.864Z,94.85
2022-12-24T17:27:38.281Z,94.82
2022-12-24T17:30:08.455Z,94.93
2022-12-24T17:32:37.064Z,95.09
2022-12-24T17:35:07.271Z,95.15
2022-12-24T17:37:35.924Z,95.30
2022-12-24T17:40:06.577Z,95.45
2022-12-24T17:42:37.064Z,95.53
2022-12-24T17:45:07.513Z,95.68
2022-12-24T17:47:36.008Z,95.73
2022-12-24T17:50:07.145Z,95.68
2022-12-24T17:52:35.864Z,95.78
2022-12-24T17:55:06.441Z,95.82
2022-12-24T17:57:35.867Z,95.82
2022-12-24T18:00:07.568Z,95.94
2022-12-24T18:02:36.926Z,96.03
2022-12-24T18:05:07.292Z,96.15
2022-12-24T18:07:36.261Z,96.20
2022-12-24T18:10:05.653Z,96.35
2022-12-24T18:12:34.341Z,96.59
2022-12-24T18:15:02.882Z,96.82
2022-12-24T18:17:31.772Z,96.95
2022-12-24T18:20:00.561Z,97.12
2022-12-24T18:22:29.151Z,97.32
2022-12-24T18:24:58.036Z,97.49
2022-12-24T18:27:26.557Z,97.62
2022-12-24T18:29:55.180Z,97.75
2022-12-24T18:32:23.712Z,97.89
2022-12-24T18:34:52.227Z,97.92
2022-12-24T18:37:20.915Z,97.93
2022-12-24T18:39:50.647Z,97.99
2022-12-24T18:42:19.319Z,97.97
2022-12-24T18:44:48.164Z,98.04
2022-12-24T18:47:17.140Z,98.08
2022-12-24T18:49:46.002Z,98.18
2022-12-24T18:52:20.803Z,98.28
2022-12-24T18:54:50.218Z,98.37
2022-12-24T18:57:18.757Z,98.39
2022-12-24T18:59:47.593Z,98.50
2022-12-24T19:02:16.472Z,98.68
2022-12-24T19:04:45.780Z,98.81
2022-12-24T19:07:14.808Z,98.81
2022-12-24T19:09:45.591Z,98.74
2022-12-24T19:12:14.771Z,98.87
2022-12-24T19:14:43.662Z,99.00
2022-12-24T19:17:12.306Z,99.11
2022-12-24T19:19:41.922Z,99.15
2022-12-24T19:22:10.601Z,99.20
2022-12-24T19:24:39.651Z,99.09
2022-12-24T19:27:08.222Z,99.12
2022-12-24T19:29:36.899Z,99.23
2022-12-24T19:32:06.284Z,99.33
2022-12-24T19:34:35.079Z,99.40
2022-12-24T19:37:09.263Z,99.57
2022-12-24T19:39:38.182Z,99.60
2022-12-24T19:42:07.603Z,99.56
2022-12-24T19:44:37.988Z,99.62
2022-12-24T19:47:06.672Z,99.61
2022-12-24T19:49:36.500Z,99.65
2022-12-24T19:52:05.607Z,99.71
2022-12-24T19:54:35.319Z,99.62
2022-12-24T19:57:04.182Z,99.56
2022-12-24T19:59:35.338Z,99.61
2022-12-24T20:02:04.427Z,99.69
2022-12-24T20:04:33.852Z,99.66
2022-12-24T20:07:02.981Z,99.54
2022-12-24T20:09:33.795Z,99.54
2022-12-24T20:12:02.379Z,99.57
2022-12-24T20:14:32.219Z,99.60
2022-12-24T20:17:01.285Z,99.66
2022-12-24T20:19:30.723Z,99.68
2022-12-24T20:21:59.256Z,99.63
2022-12-24T20:24:28.246Z,99.74
2022-12-24T20:26:56.867Z,99.88
2022-12-24T20:29:25.354Z,99.92
2022-12-24T20:31:54.174Z,99.99
2022-12-24T20:34:24.672Z,99.91
2022-12-24T20:36:54.548Z,99.88
2022-12-24T20:39:23.439Z,99.90
2022-12-24T20:41:53.094Z,99.94
2022-12-24T20:44:21.817Z,99.99
2022-12-24T20:46:51.257Z,100.00
2022-12-24T20:49:19.747Z,100.00
2022-12-24T20:51:48.410Z,100.00
2022-12-24T20:54:20.600Z,100.00
2022-12-24T20:56:58.564Z,100.00
2022-12-24T20:59:20.955Z,100.00
2022-12-24T21:01:49.469Z,100.00
2022-12-24T21:04:18.253Z,100.00
2022-12-24T21:06:49.148Z,100.00
2022-12-24T21:09:18.332Z,100.00
2022-12-24T21:11:49.802Z,100.00
2022-12-24T21:14:21.630Z,100.00
2022-12-24T21:16:52.453Z,100.00
2022-12-24T21:19:24.197Z,100.00
2022-12-24T21:21:53.380Z,100.00
2022-12-24T21:24:22.485Z,100.00
2022-12-24T21:26:51.288Z,100.00
2022-12-24T21:29:20.129Z,100.00
2022-12-24T21:31:49.055Z,100.00
2022-12-24T21:34:18.020Z,100.00
2022-12-24T21:36:47.003Z,100.00
2022-12-24T21:39:16.607Z,100.00
2022-12-24T21:41:45.195Z,100.00
2022-12-24T21:44:14.127Z,100.00
2022-12-24T21:46:43.971Z,100.00
2022-12-24T21:49:31.637Z,100.00
2022-12-24T21:52:01.601Z,100.00
2022-12-24T21:54:31.234Z,100.00
2022-12-24T21:57:24.231Z,100.00
2022-12-24T21:59:59.305Z,100.00
2022-12-24T22:02:28.902Z,100.00
2022-12-24T22:04:58.252Z,100.00
2022-12-24T22:07:46.605Z,100.00
2022-12-24T22:10:34.409Z,100.00
2022-12-24T22:13:07.730Z,100.00
2022-12-24T22:15:38.910Z,100.00
2022-12-24T22:18:08.085Z,100.00
2022-12-24T22:20:37.394Z,100.00
2022-12-24T22:23:06.149Z,100.00
2022-12-24T22:25:35.270Z,100.00
2022-12-24T22:28:04.004Z,100.00
2022-12-24T22:30:32.510Z,100.00
2022-12-24T22:33:01.292Z,100.00
2022-12-24T22:35:30.653Z,100.00
2022-12-24T22:38:00.616Z,100.00
2022-12-24T22:40:30.224Z,100.00
2022-12-24T22:42:58.840Z,100.00
2022-12-24T22:45:27.543Z,100.00
2022-12-24T22:47:56.152Z,100.00
2022-12-24T22:50:24.856Z,100.00
2022-12-24T22:52:53.586Z,100.00
2022-12-24T22:55:24.313Z,100.00
2022-12-24T22:57:53.871Z,100.00
2022-12-24T23:00:42.934Z,100.00
2022-12-24T23:03:11.966Z,100.00
2022-12-24T23:05:40.733Z,100.00
2022-12-24T23:08:09.658Z,100.00
2022-12-24T23:10:38.666Z,100.00
2022-12-24T23:13:25.700Z,100.00
2022-12-24T23:15:54.323Z,100.00
2022-12-24T23:18:23.399Z,100.00
2022-12-24T23:20:53.738Z,100.00
2022-12-24T23:23:22.308Z,100.00
2022-12-24T23:25:51.607Z,100.00
2022-12-24T23:28:20.297Z,100.00
2022-12-24T23:30:58.585Z,100.00
2022-12-24T23:33:27.682Z,100.00
2022-12-24T23:35:56.376Z,100.00
2022-12-24T23:38:25.831Z,100.00
2022-12-24T23:41:03.808Z,100.00
2022-12-24T23:43:33.476Z,100.00
2022-12-24T23:46:02.825Z,100.00
2022-12-24T23:48:31.676Z,100.00
2022-12-24T23:51:08.558Z,100.00
2022-12-24T23:53:37.394Z,100.00
2022-12-24T23:56:06.226Z,100.00
2022-12-24T23:58:35.226Z,100.00
